createdAt,value
2022-10-07T00:01:11.778Z,82.12
2022-10-07T00:03:40.227Z,81.87
2022-10-07T00:06:11.674Z,82.89
2022-10-07T00:08:41.307Z,82.86
2022-10-07T00:11:11.720Z,82.82
2022-10-07T00:13:41.460Z,82.44
2022-10-07T00:16:13.533Z,83.27
2022-10-07T00:18:42.355Z,82.85
2022-10-07T00:21:13.140Z,83.03
2022-10-07T00:23:42.545Z,83.34
2022-10-07T00:26:13.174Z,82.74
2022-10-07T00:28:41.368Z,84.55
2022-10-07T00:31:13.356Z,85.24
2022-10-07T00:33:41.997Z,84.52
2022-10-07T00:36:19.201Z,85.05
2022-10-07T00:38:51.530Z,85.42
2022-10-07T00:41:21.853Z,84.61
2022-10-07T00:43:50.330Z,84.46
2022-10-07T00:46:27.283Z,84.42
2022-10-07T00:48:55.778Z,83.92
2022-10-07T00:51:23.942Z,84.19
2022-10-07T00:53:56.247Z,83.78
2022-10-07T00:56:27.079Z,83.81
2022-10-07T00:58:55.153Z,83.65
2022-10-07T01:01:25.182Z,84.02
2022-10-07T01:03:53.671Z,84.40
2022-10-07T01:06:22.214Z,84.39
2022-10-07T01:08:53.313Z,84.50
2022-10-07T01:11:35.048Z,84.26
2022-10-07T01:14:11.245Z,84.40
2022-10-07T01:16:50.759Z,84.83
2022-10-07T01:19:44.798Z,83.79
2022-10-07T01:22:23.986Z,83.18
2022-10-07T01:25:06.661Z,83.78
2022-10-07T01:27:38.408Z,84.22
2022-10-07T01:30:08.798Z,83.67
2022-10-07T01:32:40.410Z,84.13
2022-10-07T01:35:12.449Z,84.02
2022-10-07T01:37:46.034Z,83.68
2022-10-07T01:40:17.783Z,83.93
2022-10-07T01:42:47.751Z,83.94
2022-10-07T01:45:21.495Z,83.52
2022-10-07T01:47:50.463Z,83.54
2022-10-07T01:50:23.360Z,83.92
2022-10-07T01:53:06.710Z,83.40
2022-10-07T01:55:51.035Z,82.93
2022-10-07T01:58:45.600Z,83.76
2022-10-07T02:01:20.394Z,83.92
2022-10-07T02:04:07.779Z,84.05
2022-10-07T02:06:43.943Z,84.20
2022-10-07T02:09:21.914Z,84.19
2022-10-07T02:11:56.617Z,84.20
2022-10-07T02:14:38.303Z,83.91
2022-10-07T02:17:12.611Z,84.66
2022-10-07T02:19:47.956Z,83.31
2022-10-07T02:22:18.532Z,83.84
2022-10-07T02:24:48.996Z,83.70
2022-10-07T02:27:22.431Z,83.60
2022-10-07T02:29:59.358Z,83.80
2022-10-07T02:32:32.733Z,83.37
2022-10-07T02:35:05.734Z,83.14
2022-10-07T02:37:39.011Z,83.13
2022-10-07T02:40:12.075Z,83.73
2022-10-07T02:42:46.006Z,84.04
2022-10-07T02:45:25.877Z,83.64
2022-10-07T02:48:00.195Z,83.97
2022-10-07T02:50:35.570Z,84.21
2022-10-07T02:53:05.796Z,84.82
2022-10-07T02:55:36.179Z,84.90
2022-10-07T02:58:08.634Z,85.36
2022-10-07T03:00:43.576Z,84.48
2022-10-07T03:03:11.514Z,85.39
2022-10-07T03:05:59.349Z,84.60
2022-10-07T03:08:28.681Z,84.73
2022-10-07T03:10:57.844Z,84.45
2022-10-07T03:13:26.323Z,84.26
2022-10-07T03:16:00.647Z,84.15
2022-10-07T03:18:30.451Z,83.83
2022-10-07T03:21:25.170Z,84.07
2022-10-07T03:23:55.686Z,83.50
2022-10-07T03:26:27.644Z,83.93
2022-10-07T03:28:56.594Z,84.57
2022-10-07T03:31:28.618Z,83.58
2022-10-07T03:33:59.697Z,84.70
2022-10-07T03:36:28.599Z,84.33
2022-10-07T03:38:56.836Z,84.23
2022-10-07T03:41:25.840Z,84.22
2022-10-07T03:43:59.151Z,84.43
2022-10-07T03:46:29.790Z,84.31
2022-10-07T03:48:58.476Z,84.46
2022-10-07T03:51:26.860Z,83.78
2022-10-07T03:53:57.657Z,84.29
2022-10-07T03:56:28.508Z,84.46
2022-10-07T03:58:56.637Z,84.76
2022-10-07T04:01:26.019Z,85.52
2022-10-07T04:04:00.938Z,84.51
2022-10-07T04:06:32.351Z,84.88
2022-10-07T04:09:04.277Z,85.05
2022-10-07T04:11:32.403Z,84.82
2022-10-07T04:14:01.426Z,85.18
2022-10-07T04:16:34.693Z,84.96
2022-10-07T04:19:07.964Z,84.66
2022-10-07T04:21:36.054Z,85.76
2022-10-07T04:24:05.453Z,85.68
2022-10-07T04:26:36.794Z,85.14
2022-10-07T04:29:04.908Z,85.40
2022-10-07T04:31:33.082Z,85.53
2022-10-07T04:34:05.645Z,85.65
2022-10-07T04:36:38.542Z,86.03
2022-10-07T04:39:10.802Z,85.36
2022-10-07T04:41:44.090Z,85.86
2022-10-07T04:44:19.436Z,85.99
2022-10-07T04:46:56.584Z,85.35
2022-10-07T04:49:27.044Z,85.87
2022-10-07T04:51:57.505Z,86.22
2022-10-07T04:54:29.598Z,86.14
2022-10-07T04:56:57.602Z,85.64
2022-10-07T04:59:29.913Z,86.80
2022-10-07T05:01:58.969Z,86.10
2022-10-07T05:04:27.861Z,85.36
2022-10-07T05:06:59.590Z,85.22
2022-10-07T05:09:28.323Z,86.56
2022-10-07T05:11:57.738Z,86.30
2022-10-07T05:14:25.741Z,85.74
2022-10-07T05:16:54.925Z,85.34
2022-10-07T05:19:26.228Z,85.67
2022-10-07T05:21:55.249Z,85.27
2022-10-07T05:24:26.206Z,85.35
2022-10-07T05:26:54.741Z,85.38
2022-10-07T05:29:23.502Z,85.46
2022-10-07T05:31:53.984Z,85.39
2022-10-07T05:34:25.282Z,85.94
2022-10-07T05:36:54.953Z,85.13
2022-10-07T05:39:23.847Z,84.88
2022-10-07T05:42:13.844Z,86.13
2022-10-07T05:44:49.677Z,86.41
2022-10-07T05:47:20.338Z,85.80
2022-10-07T05:49:49.578Z,85.40
2022-10-07T05:52:18.988Z,85.58
2022-10-07T05:54:47.076Z,84.89
2022-10-07T05:57:17.812Z,84.44
2022-10-07T05:59:45.980Z,84.11
2022-10-07T06:02:17.256Z,83.89
2022-10-07T06:04:48.121Z,84.51
2022-10-07T06:07:20.933Z,84.65
2022-10-07T06:10:10.144Z,84.87
2022-10-07T06:12:57.459Z,84.47
2022-10-07T06:15:25.688Z,85.21
2022-10-07T06:17:54.086Z,84.56
2022-10-07T06:20:22.957Z,84.10
2022-10-07T06:22:54.284Z,84.91
2022-10-07T06:25:22.918Z,84.00
2022-10-07T06:27:54.479Z,83.33
2022-10-07T06:30:25.382Z,82.92
2022-10-07T06:32:54.843Z,82.93
2022-10-07T06:35:23.806Z,83.66
2022-10-07T06:37:55.172Z,82.88
2022-10-07T06:40:24.986Z,82.72
2022-10-07T06:42:55.736Z,82.55
2022-10-07T06:45:31.954Z,82.53
2022-10-07T06:48:00.719Z,82.59
2022-10-07T06:50:29.329Z,81.90
2022-10-07T06:52:57.767Z,81.96
2022-10-07T06:55:27.546Z,81.56
2022-10-07T06:57:57.396Z,81.55
2022-10-07T07:00:25.763Z,81.17
2022-10-07T07:02:56.688Z,81.10
2022-10-07T07:05:25.071Z,80.42
2022-10-07T07:07:53.329Z,81.49
2022-10-07T07:10:21.296Z,80.76
2022-10-07T07:12:54.040Z,80.65
2022-10-07T07:15:23.762Z,80.19
2022-10-07T07:17:52.067Z,80.25
2022-10-07T07:20:22.391Z,79.99
2022-10-07T07:22:52.468Z,79.68
2022-10-07T07:25:21.551Z,79.20
2022-10-07T07:27:56.810Z,78.25
2022-10-07T07:30:27.922Z,78.78
2022-10-07T07:32:57.967Z,78.37
2022-10-07T07:35:28.497Z,77.76
2022-10-07T07:37:56.644Z,76.98
2022-10-07T07:40:25.247Z,76.67
2022-10-07T07:42:55.700Z,76.84
2022-10-07T07:45:24.485Z,76.91
2022-10-07T07:47:54.194Z,77.00
2022-10-07T07:50:27.122Z,77.08
2022-10-07T07:52:57.623Z,76.72
2022-10-07T07:55:26.323Z,76.56
2022-10-07T07:57:54.372Z,75.59
2022-10-07T08:00:22.596Z,75.10
2022-10-07T08:03:01.654Z,75.12
2022-10-07T08:05:30.142Z,74.63
2022-10-07T08:08:00.198Z,74.78
2022-10-07T08:10:29.781Z,74.86
2022-10-07T08:12:57.838Z,74.04
2022-10-07T08:15:25.935Z,74.12
2022-10-07T08:17:53.978Z,73.64
2022-10-07T08:20:23.349Z,73.22
2022-10-07T08:22:53.574Z,72.53
2022-10-07T08:25:25.804Z,72.34
2022-10-07T08:27:55.182Z,72.04
2022-10-07T08:30:24.001Z,71.16
2022-10-07T08:32:52.159Z,70.58
2022-10-07T08:35:20.141Z,70.26
2022-10-07T08:37:49.430Z,69.70
2022-10-07T08:40:18.817Z,69.97
2022-10-07T08:42:48.398Z,69.79
2022-10-07T08:45:27.570Z,69.30
2022-10-07T08:47:57.504Z,68.59
2022-10-07T08:50:30.981Z,68.74
2022-10-07T08:53:04.223Z,68.96
2022-10-07T08:55:44.431Z,69.43
2022-10-07T08:58:36.107Z,68.36
2022-10-07T09:01:15.642Z,68.43
2022-10-07T09:03:52.112Z,68.50
2022-10-07T09:06:27.944Z,67.83
2022-10-07T09:09:03.699Z,67.97
2022-10-07T09:11:36.027Z,67.57
2022-10-07T09:14:14.986Z,67.38
2022-10-07T09:16:46.161Z,66.93
2022-10-07T09:19:19.361Z,67.05
2022-10-07T09:21:50.260Z,67.09
2022-10-07T09:24:24.590Z,67.33
2022-10-07T09:26:55.177Z,67.60
2022-10-07T09:29:24.764Z,67.19
2022-10-07T09:31:53.556Z,67.35
2022-10-07T09:34:25.065Z,66.56
2022-10-07T09:37:20.672Z,66.20
2022-10-07T09:39:51.939Z,66.31
2022-10-07T09:42:29.803Z,66.25
2022-10-07T09:45:01.391Z,65.13
2022-10-07T09:47:33.300Z,64.14
2022-10-07T09:50:01.318Z,63.43
2022-10-07T09:52:30.217Z,63.50
2022-10-07T09:55:32.191Z,62.94
2022-10-07T09:58:01.798Z,63.74
2022-10-07T10:00:31.647Z,64.40
2022-10-07T10:03:06.051Z,63.32
2022-10-07T10:05:36.315Z,62.84
2022-10-07T10:08:06.689Z,63.10
2022-10-07T10:10:37.613Z,62.57
2022-10-07T10:13:07.635Z,61.41
2022-10-07T10:15:41.910Z,61.59
2022-10-07T10:18:30.692Z,61.93
2022-10-07T10:21:14.924Z,61.89
2022-10-07T10:23:47.922Z,62.27
2022-10-07T10:26:53.930Z,62.12
2022-10-07T10:29:32.956Z,61.87
2022-10-07T10:32:24.955Z,62.17
2022-10-07T10:35:01.105Z,61.95
2022-10-07T10:37:48.722Z,61.62
2022-10-07T10:40:27.141Z,61.25
2022-10-07T10:43:12.210Z,61.68
2022-10-07T10:45:48.472Z,60.79
2022-10-07T10:48:30.172Z,61.45
2022-10-07T10:51:10.233Z,59.84
2022-10-07T10:53:51.413Z,59.83
2022-10-07T10:56:32.192Z,58.83
2022-10-07T10:59:27.413Z,58.57
2022-10-07T11:02:02.351Z,58.92
2022-10-07T11:04:45.447Z,58.54
2022-10-07T11:07:21.276Z,57.16
2022-10-07T11:09:53.110Z,56.34
2022-10-07T11:12:28.688Z,57.10
2022-10-07T11:15:02.251Z,56.27
2022-10-07T11:17:32.944Z,56.46
2022-10-07T11:20:13.855Z,55.84
2022-10-07T11:22:48.722Z,55.18
2022-10-07T11:25:27.854Z,54.75
2022-10-07T11:28:01.569Z,54.93
2022-10-07T11:30:40.619Z,53.56
2022-10-07T11:33:16.402Z,54.40
2022-10-07T11:35:50.154Z,54.33
2022-10-07T11:38:21.938Z,53.78
2022-10-07T11:40:53.301Z,53.37
2022-10-07T11:43:29.854Z,53.50
2022-10-07T11:46:02.413Z,52.75
2022-10-07T11:48:38.877Z,53.19
2022-10-07T11:51:09.453Z,53.20
2022-10-07T11:53:39.890Z,52.21
2022-10-07T11:56:17.603Z,52.00
2022-10-07T11:58:48.984Z,52.61
2022-10-07T12:01:48.688Z,52.30
2022-10-07T12:04:24.965Z,52.22
2022-10-07T12:07:30.504Z,52.61
2022-10-07T12:10:21.950Z,51.70
2022-10-07T12:12:56.844Z,51.91
2022-10-07T12:15:32.180Z,52.01
2022-10-07T12:18:25.470Z,52.74
2022-10-07T12:21:08.392Z,52.26
2022-10-07T12:23:43.990Z,52.09
2022-10-07T12:26:50.370Z,52.14
2022-10-07T12:29:36.612Z,52.44
2022-10-07T12:32:05.149Z,52.53
2022-10-07T12:34:41.165Z,52.71
2022-10-07T12:37:46.563Z,52.20
2022-10-07T12:40:18.668Z,52.72
2022-10-07T12:42:53.500Z,51.76
2022-10-07T12:45:23.492Z,51.53
2022-10-07T12:47:56.741Z,52.14
2022-10-07T12:50:28.023Z,51.67
2022-10-07T12:52:58.905Z,51.74
2022-10-07T12:55:33.189Z,51.91
2022-10-07T12:58:15.880Z,51.77
2022-10-07T13:00:57.316Z,51.32
2022-10-07T13:03:48.145Z,52.48
2022-10-07T13:07:09.050Z,51.25
2022-10-07T13:10:04.422Z,50.72
2022-10-07T13:12:40.005Z,51.50
2022-10-07T13:15:18.026Z,52.32
2022-10-07T13:17:51.747Z,52.71
2022-10-07T13:20:37.895Z,51.83
2022-10-07T13:23:15.180Z,51.95
2022-10-07T13:25:46.839Z,51.78
2022-10-07T13:28:18.026Z,51.73
2022-10-07T13:30:47.918Z,51.36
2022-10-07T13:33:31.611Z,51.29
2022-10-07T13:36:15.885Z,51.05
2022-10-07T13:38:47.777Z,50.81
2022-10-07T13:41:26.205Z,51.30
2022-10-07T13:43:57.810Z,51.17
2022-10-07T13:46:28.632Z,51.24
2022-10-07T13:48:58.081Z,52.28
2022-10-07T13:51:35.827Z,52.05
2022-10-07T13:54:08.817Z,51.69
2022-10-07T13:56:42.885Z,51.56
2022-10-07T13:59:16.090Z,51.59
2022-10-07T14:01:45.298Z,50.93
2022-10-07T14:04:25.417Z,50.51
2022-10-07T14:06:57.814Z,50.29
2022-10-07T14:09:38.813Z,50.41
2022-10-07T14:12:10.295Z,50.71
2022-10-07T14:14:40.992Z,51.21
2022-10-07T14:17:12.708Z,51.44
2022-10-07T14:19:41.548Z,51.28
2022-10-07T14:22:20.854Z,51.88
2022-10-07T14:24:56.701Z,51.95
2022-10-07T14:27:40.628Z,51.71
2022-10-07T14:30:55.576Z,50.94
2022-10-07T14:33:53.388Z,51.27
2022-10-07T14:36:23.504Z,51.75
2022-10-07T14:38:53.113Z,50.66
2022-10-07T14:41:24.027Z,50.85
2022-10-07T14:43:53.069Z,49.65
2022-10-07T14:46:22.805Z,50.20
2022-10-07T14:48:53.355Z,50.68
2022-10-07T14:51:27.026Z,50.92
2022-10-07T14:54:05.205Z,50.93
2022-10-07T14:56:37.071Z,50.63
2022-10-07T14:59:06.772Z,50.63
2022-10-07T15:01:35.116Z,51.03
2022-10-07T15:04:03.687Z,50.45
2022-10-07T15:06:32.845Z,50.46
2022-10-07T15:09:01.118Z,50.66
2022-10-07T15:11:29.315Z,50.97
2022-10-07T15:13:58.787Z,51.23
2022-10-07T15:16:28.985Z,50.77
2022-10-07T15:18:57.354Z,50.04
2022-10-07T15:21:25.466Z,50.29
2022-10-07T15:23:54.158Z,50.53
2022-10-07T15:26:24.433Z,51.33
2022-10-07T15:28:54.429Z,50.91
2022-10-07T15:31:26.098Z,51.38
2022-10-07T15:33:57.923Z,51.74
2022-10-07T15:36:27.703Z,51.74
2022-10-07T15:38:58.184Z,52.33
2022-10-07T15:41:36.222Z,52.78
2022-10-07T15:44:07.606Z,52.07
2022-10-07T15:46:37.162Z,51.86
2022-10-07T15:49:05.886Z,52.23
2022-10-07T15:51:36.348Z,52.68
2022-10-07T15:54:05.110Z,52.80
2022-10-07T15:56:34.953Z,53.28
2022-10-07T15:59:04.437Z,53.78
2022-10-07T16:01:33.275Z,53.46
2022-10-07T16:04:05.524Z,53.80
2022-10-07T16:06:37.067Z,53.72
2022-10-07T16:09:06.662Z,54.14
2022-10-07T16:11:35.630Z,54.86
2022-10-07T16:14:03.992Z,54.92
2022-10-07T16:16:32.771Z,55.60
2022-10-07T16:19:02.381Z,56.44
2022-10-07T16:21:33.936Z,56.68
2022-10-07T16:24:05.149Z,57.33
2022-10-07T16:26:35.903Z,57.97
2022-10-07T16:29:24.089Z,58.00
2022-10-07T16:31:58.297Z,58.35
2022-10-07T16:34:27.927Z,58.84
2022-10-07T16:36:59.043Z,59.87
2022-10-07T16:39:27.151Z,60.11
2022-10-07T16:41:56.483Z,60.38
2022-10-07T16:44:25.713Z,60.59
2022-10-07T16:46:56.951Z,61.18
2022-10-07T16:49:27.551Z,61.65
2022-10-07T16:51:57.788Z,61.64
2022-10-07T16:54:26.189Z,62.02
2022-10-07T16:56:54.405Z,62.09
2022-10-07T16:59:24.626Z,63.77
2022-10-07T17:01:55.502Z,63.80
2022-10-07T17:04:24.782Z,64.06
2022-10-07T17:06:54.157Z,64.42
2022-10-07T17:09:24.884Z,64.41
2022-10-07T17:11:53.127Z,64.85
2022-10-07T17:14:23.106Z,64.93
2022-10-07T17:16:53.282Z,65.74
2022-10-07T17:19:23.189Z,65.78
2022-10-07T17:21:57.191Z,65.64
2022-10-07T17:24:26.936Z,66.07
2022-10-07T17:26:56.270Z,66.57
2022-10-07T17:29:26.429Z,66.47
2022-10-07T17:31:56.451Z,67.36
2022-10-07T17:34:24.551Z,67.25
2022-10-07T17:36:54.286Z,67.72
2022-10-07T17:39:22.637Z,68.00
2022-10-07T17:41:52.010Z,68.43
2022-10-07T17:44:21.516Z,67.91
2022-10-07T17:46:50.322Z,68.74
2022-10-07T17:49:18.552Z,68.97
2022-10-07T17:51:46.696Z,69.39
2022-10-07T17:54:15.242Z,68.76
2022-10-07T17:56:44.521Z,69.42
2022-10-07T17:59:14.787Z,69.83
2022-10-07T18:01:43.340Z,70.31
2022-10-07T18:04:14.853Z,70.75
2022-10-07T18:06:44.025Z,70.98
2022-10-07T18:09:15.405Z,70.90
2022-10-07T18:12:01.058Z,71.42
2022-10-07T18:14:56.368Z,71.39
2022-10-07T18:17:25.335Z,71.94
2022-10-07T18:19:53.614Z,71.91
2022-10-07T18:22:24.328Z,72.17
2022-10-07T18:24:52.616Z,72.18
2022-10-07T18:27:26.941Z,72.38
2022-10-07T18:29:57.053Z,72.81
2022-10-07T18:32:25.897Z,73.24
2022-10-07T18:34:53.923Z,73.13
2022-10-07T18:37:23.058Z,72.83
2022-10-07T18:39:51.235Z,72.79
2022-10-07T18:42:19.331Z,73.08
2022-10-07T18:44:47.338Z,72.87
2022-10-07T18:47:17.068Z,72.95
2022-10-07T18:49:45.118Z,73.32
2022-10-07T18:52:13.553Z,73.47
2022-10-07T18:54:41.587Z,73.71
2022-10-07T18:57:09.700Z,73.82
2022-10-07T18:59:38.313Z,74.17
2022-10-07T19:02:07.701Z,74.47
2022-10-07T19:04:37.254Z,75.06
2022-10-07T19:07:05.294Z,75.16
2022-10-07T19:09:33.321Z,75.32
2022-10-07T19:12:01.498Z,75.59
2022-10-07T19:14:31.157Z,75.72
2022-10-07T19:16:59.189Z,76.10
2022-10-07T19:19:27.149Z,76.16
2022-10-07T19:21:57.533Z,75.69
2022-10-07T19:24:45.563Z,76.44
2022-10-07T19:27:14.266Z,76.73
2022-10-07T19:29:42.287Z,76.94
2022-10-07T19:32:10.304Z,77.30
2022-10-07T19:34:38.573Z,77.46
2022-10-07T19:37:07.861Z,77.39
2022-10-07T19:39:36.153Z,77.42
2022-10-07T19:42:04.458Z,77.24
2022-10-07T19:44:33.784Z,77.64
2022-10-07T19:47:02.798Z,78.00
2022-10-07T19:49:30.759Z,78.30
2022-10-07T19:51:58.858Z,78.56
2022-10-07T19:54:30.556Z,78.53
2022-10-07T19:56:58.568Z,78.86
2022-10-07T19:59:26.681Z,79.20
2022-10-07T20:01:58.840Z,78.75
2022-10-07T20:04:29.080Z,78.60
2022-10-07T20:07:01.277Z,78.78
2022-10-07T20:09:31.156Z,79.09
2022-10-07T20:12:00.835Z,79.03
2022-10-07T20:14:29.723Z,79.42
2022-10-07T20:16:58.074Z,79.06
2022-10-07T20:19:26.255Z,79.22
2022-10-07T20:22:19.815Z,79.37
2022-10-07T20:24:52.015Z,79.53
2022-10-07T20:27:20.123Z,79.97
2022-10-07T20:30:02.439Z,80.30
2022-10-07T20:32:34.393Z,80.55
2022-10-07T20:35:06.834Z,80.21
2022-10-07T20:37:34.845Z,80.59
2022-10-07T20:40:22.373Z,80.45
2022-10-07T20:42:51.963Z,79.69
2022-10-07T20:45:20.182Z,79.85
2022-10-07T20:47:48.531Z,79.90
2022-10-07T20:50:16.939Z,80.22
2022-10-07T20:52:45.717Z,80.48
2022-10-07T20:55:15.470Z,80.58
2022-10-07T20:57:43.429Z,80.41
2022-10-07T21:00:16.384Z,80.67
2022-10-07T21:02:45.463Z,80.10
2022-10-07T21:05:13.839Z,80.10
2022-10-07T21:07:42.243Z,79.71
2022-10-07T21:10:10.434Z,80.21
2022-10-07T21:12:40.456Z,80.28
2022-10-07T21:15:09.316Z,80.08
2022-10-07T21:17:38.787Z,80.11
2022-10-07T21:20:07.358Z,80.10
2022-10-07T21:22:36.968Z,79.86
2022-10-07T21:25:06.030Z,80.09
2022-10-07T21:27:34.074Z,80.22
2022-10-07T21:30:03.555Z,80.08
2022-10-07T21:32:31.611Z,80.52
2022-10-07T21:34:59.612Z,80.25
2022-10-07T21:37:29.746Z,81.04
2022-10-07T21:39:57.972Z,81.01
2022-10-07T21:42:25.972Z,80.99
2022-10-07T21:44:54.026Z,81.38
2022-10-07T21:47:23.337Z,81.94
2022-10-07T21:49:51.288Z,81.59
2022-10-07T21:52:19.437Z,82.25
2022-10-07T21:54:47.366Z,82.73
2022-10-07T21:57:15.331Z,82.48
2022-10-07T21:59:43.306Z,82.83
2022-10-07T22:02:11.528Z,83.07
2022-10-07T22:04:42.483Z,83.01
2022-10-07T22:07:29.466Z,83.07
2022-10-07T22:09:58.528Z,83.14
2022-10-07T22:12:27.292Z,83.38
2022-10-07T22:14:55.214Z,82.74
2022-10-07T22:17:23.214Z,82.93
2022-10-07T22:19:52.750Z,83.20
2022-10-07T22:22:20.750Z,82.94
2022-10-07T22:24:48.793Z,82.75
2022-10-07T22:27:16.895Z,82.80
2022-10-07T22:29:44.906Z,82.70
2022-10-07T22:32:12.957Z,83.22
2022-10-07T22:34:58.471Z,83.04
2022-10-07T22:37:28.591Z,83.51
2022-10-07T22:39:56.572Z,83.66
2022-10-07T22:42:24.625Z,83.53
2022-10-07T22:44:52.516Z,83.64
2022-10-07T22:47:20.490Z,84.19
2022-10-07T22:49:48.757Z,83.90
2022-10-07T22:52:16.708Z,84.06
2022-10-07T22:54:46.512Z,83.92
2022-10-07T22:57:14.722Z,84.09
2022-10-07T22:59:42.838Z,83.93
2022-10-07T23:02:10.925Z,84.21
2022-10-07T23:04:39.031Z,84.71
2022-10-07T23:07:07.289Z,84.19
2022-10-07T23:09:35.330Z,84.10
2022-10-07T23:12:06.474Z,84.07
2022-10-07T23:14:34.464Z,84.23
2022-10-07T23:17:05.030Z,84.11
2022-10-07T23:19:33.091Z,83.41
2022-10-07T23:22:01.284Z,83.88
2022-10-07T23:24:29.416Z,83.46
2022-10-07T23:26:57.418Z,83.74
2022-10-07T23:29:27.212Z,82.63
2022-10-07T23:31:55.276Z,83.88
2022-10-07T23:34:23.266Z,84.37
2022-10-07T23:36:55.230Z,85.13
2022-10-07T23:39:23.690Z,84.58
2022-10-07T23:41:51.604Z,83.97
2022-10-07T23:44:20.458Z,83.09
2022-10-07T23:46:51.738Z,83.71
2022-10-07T23:49:19.823Z,83.73
2022-10-07T23:51:47.844Z,84.28
2022-10-07T23:54:15.863Z,84.77
2022-10-07T23:56:43.981Z,84.56
2022-10-07T23:59:11.946Z,84.66
